sensor_id;sensor_type;location;lat;lon;timestamp;P1;durP1;ratioP1;P2;durP2;ratioP2
3278;SDS011;1651;50.940;6.888;2023-05-10T00:02:16;7.57;;;6.37;;
3278;SDS011;1651;50.940;6.888;2023-05-10T00:04:42;9.30;;;7.50;;
3278;SDS011;1651;50.940;6.888;2023-05-10T00:07:08;8.37;;;6.03;;
3278;SDS011;1651;50.940;6.888;2023-05-10T00:09:35;9.07;;;6.67;;
3278;SDS011;1651;50.940;6.888;2023-05-10T00:12:01;10.03;;;7.63;;
3278;SDS011;1651;50.940;6.888;2023-05-10T00:14:27;10.17;;;7.10;;
3278;SDS011;1651;50.940;6.888;2023-05-10T00:16:53;11.00;;;7.90;;
3278;SDS011;1651;50.940;6.888;2023-05-10T00:19:19;10.10;;;6.87;;
3278;SDS011;1651;50.940;6.888;2023-05-10T00:21:47;11.33;;;7.83;;
3278;SDS011;1651;50.940;6.888;2023-05-10T00:24:13;12.53;;;8.90;;
3278;SDS011;1651;50.940;6.888;2023-05-10T00:26:39;13.30;;;8.33;;
3278;SDS011;1651;50.940;6.888;2023-05-10T00:29:07;12.90;;;9.00;;
3278;SDS011;1651;50.940;6.888;2023-05-10T00:31:33;11.20;;;7.30;;
3278;SDS011;1651;50.940;6.888;2023-05-10T00:33:59;12.70;;;8.97;;
3278;SDS011;1651;50.940;6.888;2023-05-10T00:36:25;16.00;;;8.80;;
3278;SDS011;1651;50.940;6.888;2023-05-10T00:38:51;17.07;;;9.70;;
3278;SDS011;1651;50.940;6.888;2023-05-10T00:41:17;12.83;;;8.33;;
3278;SDS011;1651;50.940;6.888;2023-05-10T00:43:43;14.30;;;9.50;;
3278;SDS011;1651;50.940;6.888;2023-05-10T00:46:09;10.70;;;7.93;;
3278;SDS011;1651;50.940;6.888;2023-05-10T00:48:35;11.67;;;8.40;;
3278;SDS011;1651;50.940;6.888;2023-05-10T00:51:01;17.03;;;9.90;;
3278;SDS011;1651;50.940;6.888;2023-05-10T00:53:27;13.37;;;8.43;;
3278;SDS011;1651;50.940;6.888;2023-05-10T00:55:54;15.17;;;9.07;;
3278;SDS011;1651;50.940;6.888;2023-05-10T00:58:21;13.43;;;9.20;;
3278;SDS011;1651;50.940;6.888;2023-05-10T01:00:48;14.70;;;8.73;;
3278;SDS011;1651;50.940;6.888;2023-05-10T01:03:15;16.97;;;9.53;;
3278;SDS011;1651;50.940;6.888;2023-05-10T01:05:41;19.43;;;9.27;;
3278;SDS011;1651;50.940;6.888;2023-05-10T01:08:07;14.80;;;9.80;;
3278;SDS011;1651;50.940;6.888;2023-05-10T01:10:33;14.10;;;9.00;;
3278;SDS011;1651;50.940;6.888;2023-05-10T01:13:00;15.63;;;9.23;;
3278;SDS011;1651;50.940;6.888;2023-05-10T01:15:26;11.73;;;8.47;;
3278;SDS011;1651;50.940;6.888;2023-05-10T01:17:52;16.20;;;9.60;;
3278;SDS011;1651;50.940;6.888;2023-05-10T01:20:20;13.30;;;9.40;;
3278;SDS011;1651;50.940;6.888;2023-05-10T01:22:50;13.77;;;9.00;;
3278;SDS011;1651;50.940;6.888;2023-05-10T01:28:01;11.23;;;8.07;;
3278;SDS011;1651;50.940;6.888;2023-05-10T01:33:26;13.30;;;9.50;;
3278;SDS011;1651;50.940;6.888;2023-05-10T01:36:08;15.70;;;9.50;;
3278;SDS011;1651;50.940;6.888;2023-05-10T01:41:27;13.20;;;8.63;;
3278;SDS011;1651;50.940;6.888;2023-05-10T01:43:55;15.23;;;8.57;;
3278;SDS011;1651;50.940;6.888;2023-05-10T01:46:41;15.27;;;9.27;;
3278;SDS011;1651;50.940;6.888;2023-05-10T01:49:08;14.30;;;9.10;;
3278;SDS011;1651;50.940;6.888;2023-05-10T01:51:53;15.63;;;9.53;;
3278;SDS011;1651;50.940;6.888;2023-05-10T01:54:20;13.10;;;8.30;;
3278;SDS011;1651;50.940;6.888;2023-05-10T01:56:52;13.87;;;9.10;;
3278;SDS011;1651;50.940;6.888;2023-05-10T01:59:22;13.57;;;7.90;;
3278;SDS011;1651;50.940;6.888;2023-05-10T02:01:50;13.87;;;7.87;;
3278;SDS011;1651;50.940;6.888;2023-05-10T02:04:16;18.43;;;9.90;;
3278;SDS011;1651;50.940;6.888;2023-05-10T02:06:43;17.93;;;9.47;;
3278;SDS011;1651;50.940;6.888;2023-05-10T02:09:10;17.40;;;10.43;;
3278;SDS011;1651;50.940;6.888;2023-05-10T02:11:41;17.23;;;9.50;;
3278;SDS011;1651;50.940;6.888;2023-05-10T02:14:08;12.83;;;8.57;;
3278;SDS011;1651;50.940;6.888;2023-05-10T02:16:35;12.80;;;8.27;;
3278;SDS011;1651;50.940;6.888;2023-05-10T02:19:02;12.47;;;8.80;;
3278;SDS011;1651;50.940;6.888;2023-05-10T02:21:29;13.43;;;9.23;;
3278;SDS011;1651;50.940;6.888;2023-05-10T02:23:56;12.07;;;7.50;;
3278;SDS011;1651;50.940;6.888;2023-05-10T02:26:22;13.77;;;8.57;;
3278;SDS011;1651;50.940;6.888;2023-05-10T02:28:50;13.90;;;8.40;;
3278;SDS011;1651;50.940;6.888;2023-05-10T02:31:16;12.60;;;7.70;;
3278;SDS011;1651;50.940;6.888;2023-05-10T02:33:42;9.67;;;6.53;;
3278;SDS011;1651;50.940;6.888;2023-05-10T02:36:10;8.47;;;5.77;;
3278;SDS011;1651;50.940;6.888;2023-05-10T02:38:37;10.20;;;6.83;;
3278;SDS011;1651;50.940;6.888;2023-05-10T02:41:03;10.00;;;6.97;;
3278;SDS011;1651;50.940;6.888;2023-05-10T02:43:32;9.87;;;6.70;;
3278;SDS011;1651;50.940;6.888;2023-05-10T02:45:59;9.83;;;5.80;;
3278;SDS011;1651;50.940;6.888;2023-05-10T02:48:25;8.77;;;6.00;;
3278;SDS011;1651;50.940;6.888;2023-05-10T02:50:51;8.10;;;4.83;;
3278;SDS011;1651;50.940;6.888;2023-05-10T02:53:22;7.07;;;5.27;;
3278;SDS011;1651;50.940;6.888;2023-05-10T02:55:49;7.60;;;5.40;;
3278;SDS011;1651;50.940;6.888;2023-05-10T02:58:16;8.43;;;5.10;;
3278;SDS011;1651;50.940;6.888;2023-05-10T03:00:45;9.13;;;4.80;;
3278;SDS011;1651;50.940;6.888;2023-05-10T03:03:11;8.87;;;5.83;;
3278;SDS011;1651;50.940;6.888;2023-05-10T03:05:37;8.80;;;5.10;;
3278;SDS011;1651;50.940;6.888;2023-05-10T03:08:03;7.30;;;5.53;;
3278;SDS011;1651;50.940;6.888;2023-05-10T03:10:30;8.23;;;5.57;;
3278;SDS011;1651;50.940;6.888;2023-05-10T03:18:12;8.00;;;5.20;;
3278;SDS011;1651;50.940;6.888;2023-05-10T03:20:47;7.20;;;5.10;;
3278;SDS011;1651;50.940;6.888;2023-05-10T03:25:55;8.53;;;5.77;;
3278;SDS011;1651;50.940;6.888;2023-05-10T03:28:21;11.03;;;6.03;;
3278;SDS011;1651;50.940;6.888;2023-05-10T03:30:50;12.47;;;7.10;;
3278;SDS011;1651;50.940;6.888;2023-05-10T03:33:18;10.63;;;7.00;;
3278;SDS011;1651;50.940;6.888;2023-05-10T03:35:44;11.80;;;7.97;;
3278;SDS011;1651;50.940;6.888;2023-05-10T03:38:11;11.43;;;7.47;;
3278;SDS011;1651;50.940;6.888;2023-05-10T03:40:37;9.80;;;6.20;;
3278;SDS011;1651;50.940;6.888;2023-05-10T03:43:03;12.50;;;6.97;;
3278;SDS011;1651;50.940;6.888;2023-05-10T03:45:29;15.20;;;8.80;;
3278;SDS011;1651;50.940;6.888;2023-05-10T03:47:55;11.57;;;8.03;;
3278;SDS011;1651;50.940;6.888;2023-05-10T03:50:22;12.20;;;7.97;;
3278;SDS011;1651;50.940;6.888;2023-05-10T03:52:48;12.67;;;8.87;;
3278;SDS011;1651;50.940;6.888;2023-05-10T03:55:15;15.73;;;8.70;;
3278;SDS011;1651;50.940;6.888;2023-05-10T03:57:42;14.13;;;9.00;;
3278;SDS011;1651;50.940;6.888;2023-05-10T04:00:08;13.17;;;8.60;;
3278;SDS011;1651;50.940;6.888;2023-05-10T04:02:34;16.13;;;10.73;;
3278;SDS011;1651;50.940;6.888;2023-05-10T04:05:00;13.60;;;9.00;;
3278;SDS011;1651;50.940;6.888;2023-05-10T04:07:26;12.63;;;8.13;;
3278;SDS011;1651;50.940;6.888;2023-05-10T04:09:52;17.07;;;10.13;;
3278;SDS011;1651;50.940;6.888;2023-05-10T04:12:18;17.00;;;9.03;;
3278;SDS011;1651;50.940;6.888;2023-05-10T04:14:44;19.40;;;11.40;;
3278;SDS011;1651;50.940;6.888;2023-05-10T04:17:12;18.97;;;11.07;;
3278;SDS011;1651;50.940;6.888;2023-05-10T04:19:38;23.77;;;11.20;;
3278;SDS011;1651;50.940;6.888;2023-05-10T04:22:04;19.13;;;10.90;;
3278;SDS011;1651;50.940;6.888;2023-05-10T04:24:30;22.77;;;11.20;;
3278;SDS011;1651;50.940;6.888;2023-05-10T04:26:58;20.23;;;12.30;;
3278;SDS011;1651;50.940;6.888;2023-05-10T04:29:25;20.57;;;10.53;;
3278;SDS011;1651;50.940;6.888;2023-05-10T04:31:53;20.67;;;12.77;;
3278;SDS011;1651;50.940;6.888;2023-05-10T04:34:20;21.20;;;11.83;;
3278;SDS011;1651;50.940;6.888;2023-05-10T04:36:46;15.10;;;9.53;;
3278;SDS011;1651;50.940;6.888;2023-05-10T04:39:12;23.97;;;12.20;;
3278;SDS011;1651;50.940;6.888;2023-05-10T04:41:38;18.23;;;12.17;;
3278;SDS011;1651;50.940;6.888;2023-05-10T04:44:05;16.00;;;11.83;;
3278;SDS011;1651;50.940;6.888;2023-05-10T04:46:31;19.47;;;10.90;;
3278;SDS011;1651;50.940;6.888;2023-05-10T04:48:57;23.10;;;12.40;;
3278;SDS011;1651;50.940;6.888;2023-05-10T04:51:23;18.77;;;12.27;;
3278;SDS011;1651;50.940;6.888;2023-05-10T04:53:49;18.90;;;11.10;;
3278;SDS011;1651;50.940;6.888;2023-05-10T04:56:15;23.33;;;14.67;;
3278;SDS011;1651;50.940;6.888;2023-05-10T04:58:42;19.03;;;11.50;;
3278;SDS011;1651;50.940;6.888;2023-05-10T05:01:09;17.50;;;12.00;;
3278;SDS011;1651;50.940;6.888;2023-05-10T05:03:36;25.93;;;10.87;;
3278;SDS011;1651;50.940;6.888;2023-05-10T05:06:02;14.17;;;10.00;;
3278;SDS011;1651;50.940;6.888;2023-05-10T05:08:30;20.53;;;11.70;;
3278;SDS011;1651;50.940;6.888;2023-05-10T05:10:57;17.80;;;11.70;;
3278;SDS011;1651;50.940;6.888;2023-05-10T05:13:24;18.97;;;12.60;;
3278;SDS011;1651;50.940;6.888;2023-05-10T05:15:50;19.43;;;11.70;;
3278;SDS011;1651;50.940;6.888;2023-05-10T05:18:16;16.23;;;10.70;;
3278;SDS011;1651;50.940;6.888;2023-05-10T05:20:42;16.30;;;11.00;;
3278;SDS011;1651;50.940;6.888;2023-05-10T05:23:08;17.93;;;9.70;;
3278;SDS011;1651;50.940;6.888;2023-05-10T05:25:34;18.97;;;10.47;;
3278;SDS011;1651;50.940;6.888;2023-05-10T05:28:00;16.80;;;10.30;;
3278;SDS011;1651;50.940;6.888;2023-05-10T05:30:26;18.63;;;10.50;;
3278;SDS011;1651;50.940;6.888;2023-05-10T05:32:55;19.40;;;12.37;;
3278;SDS011;1651;50.940;6.888;2023-05-10T05:35:21;22.13;;;11.17;;
3278;SDS011;1651;50.940;6.888;2023-05-10T05:37:48;17.47;;;11.43;;
3278;SDS011;1651;50.940;6.888;2023-05-10T05:40:14;20.80;;;10.87;;
3278;SDS011;1651;50.940;6.888;2023-05-10T05:42:41;20.00;;;11.23;;
3278;SDS011;1651;50.940;6.888;2023-05-10T05:45:09;14.70;;;10.20;;
3278;SDS011;1651;50.940;6.888;2023-05-10T05:47:43;21.23;;;10.57;;
3278;SDS011;1651;50.940;6.888;2023-05-10T05:50:10;17.67;;;9.80;;
3278;SDS011;1651;50.940;6.888;2023-05-10T05:52:36;17.50;;;10.43;;
3278;SDS011;1651;50.940;6.888;2023-05-10T05:55:02;21.67;;;10.57;;
3278;SDS011;1651;50.940;6.888;2023-05-10T05:57:28;16.00;;;9.87;;
3278;SDS011;1651;50.940;6.888;2023-05-10T05:59:54;18.43;;;9.73;;
3278;SDS011;1651;50.940;6.888;2023-05-10T06:02:20;17.40;;;9.73;;
3278;SDS011;1651;50.940;6.888;2023-05-10T06:04:46;18.87;;;10.20;;
3278;SDS011;1651;50.940;6.888;2023-05-10T06:07:12;17.27;;;9.97;;
3278;SDS011;1651;50.940;6.888;2023-05-10T06:09:39;13.10;;;9.43;;
3278;SDS011;1651;50.940;6.888;2023-05-10T06:12:05;18.03;;;9.87;;
3278;SDS011;1651;50.940;6.888;2023-05-10T06:14:31;16.60;;;10.10;;
3278;SDS011;1651;50.940;6.888;2023-05-10T06:16:57;17.63;;;9.63;;
3278;SDS011;1651;50.940;6.888;2023-05-10T06:19:25;15.37;;;9.40;;
3278;SDS011;1651;50.940;6.888;2023-05-10T06:21:52;16.53;;;9.10;;
3278;SDS011;1651;50.940;6.888;2023-05-10T06:24:18;15.97;;;9.13;;
3278;SDS011;1651;50.940;6.888;2023-05-10T06:26:44;13.00;;;8.40;;
3278;SDS011;1651;50.940;6.888;2023-05-10T06:29:10;13.83;;;8.43;;
3278;SDS011;1651;50.940;6.888;2023-05-10T06:31:36;15.40;;;9.37;;
3278;SDS011;1651;50.940;6.888;2023-05-10T06:34:02;13.47;;;8.70;;
3278;SDS011;1651;50.940;6.888;2023-05-10T06:36:29;13.10;;;8.73;;
3278;SDS011;1651;50.940;6.888;2023-05-10T06:38:55;15.33;;;8.90;;
3278;SDS011;1651;50.940;6.888;2023-05-10T06:41:21;13.70;;;11.33;;
3278;SDS011;1651;50.940;6.888;2023-05-10T06:43:47;13.67;;;10.20;;
3278;SDS011;1651;50.940;6.888;2023-05-10T06:46:14;12.43;;;7.43;;
3278;SDS011;1651;50.940;6.888;2023-05-10T06:48:40;11.43;;;6.07;;
3278;SDS011;1651;50.940;6.888;2023-05-10T06:51:06;13.60;;;8.20;;
3278;SDS011;1651;50.940;6.888;2023-05-10T06:53:32;14.27;;;9.40;;
3278;SDS011;1651;50.940;6.888;2023-05-10T06:55:58;16.00;;;10.10;;
3278;SDS011;1651;50.940;6.888;2023-05-10T06:58:24;16.70;;;10.17;;
3278;SDS011;1651;50.940;6.888;2023-05-10T07:00:52;17.47;;;10.43;;
3278;SDS011;1651;50.940;6.888;2023-05-10T07:03:18;19.03;;;10.60;;
3278;SDS011;1651;50.940;6.888;2023-05-10T07:05:44;14.80;;;9.73;;
3278;SDS011;1651;50.940;6.888;2023-05-10T07:08:10;18.40;;;10.33;;
3278;SDS011;1651;50.940;6.888;2023-05-10T07:10:37;13.47;;;9.97;;
3278;SDS011;1651;50.940;6.888;2023-05-10T07:13:03;20.37;;;11.07;;
3278;SDS011;1651;50.940;6.888;2023-05-10T07:15:29;17.37;;;11.57;;
3278;SDS011;1651;50.940;6.888;2023-05-10T07:17:55;15.90;;;9.97;;
3278;SDS011;1651;50.940;6.888;2023-05-10T07:20:21;15.73;;;10.23;;
3278;SDS011;1651;50.940;6.888;2023-05-10T07:22:48;14.90;;;9.90;;
3278;SDS011;1651;50.940;6.888;2023-05-10T07:25:14;15.30;;;9.10;;
3278;SDS011;1651;50.940;6.888;2023-05-10T07:27:40;15.10;;;9.73;;
3278;SDS011;1651;50.940;6.888;2023-05-10T07:30:06;14.53;;;10.53;;
3278;SDS011;1651;50.940;6.888;2023-05-10T07:32:33;19.17;;;10.60;;
3278;SDS011;1651;50.940;6.888;2023-05-10T07:34:59;17.20;;;10.47;;
3278;SDS011;1651;50.940;6.888;2023-05-10T07:37:26;17.67;;;9.83;;
3278;SDS011;1651;50.940;6.888;2023-05-10T07:39:52;14.93;;;9.67;;
3278;SDS011;1651;50.940;6.888;2023-05-10T07:42:18;13.50;;;9.80;;
3278;SDS011;1651;50.940;6.888;2023-05-10T07:44:45;16.03;;;10.17;;
3278;SDS011;1651;50.940;6.888;2023-05-10T07:47:12;16.60;;;9.37;;
3278;SDS011;1651;50.940;6.888;2023-05-10T07:49:38;15.40;;;9.00;;
3278;SDS011;1651;50.940;6.888;2023-05-10T07:52:04;12.20;;;9.67;;
3278;SDS011;1651;50.940;6.888;2023-05-10T07:54:30;13.20;;;9.00;;
3278;SDS011;1651;50.940;6.888;2023-05-10T07:56:56;15.13;;;8.20;;
3278;SDS011;1651;50.940;6.888;2023-05-10T07:59:23;16.20;;;9.00;;
3278;SDS011;1651;50.940;6.888;2023-05-10T08:01:49;14.60;;;8.30;;
3278;SDS011;1651;50.940;6.888;2023-05-10T08:04:15;14.50;;;9.83;;
3278;SDS011;1651;50.940;6.888;2023-05-10T08:06:42;14.30;;;9.40;;
3278;SDS011;1651;50.940;6.888;2023-05-10T08:09:08;14.93;;;9.07;;
3278;SDS011;1651;50.940;6.888;2023-05-10T08:11:34;15.70;;;9.70;;
3278;SDS011;1651;50.940;6.888;2023-05-10T08:14:00;14.80;;;9.60;;
3278;SDS011;1651;50.940;6.888;2023-05-10T08:16:26;12.50;;;8.70;;
3278;SDS011;1651;50.940;6.888;2023-05-10T08:18:52;14.83;;;9.60;;
3278;SDS011;1651;50.940;6.888;2023-05-10T08:21:20;13.50;;;8.57;;
3278;SDS011;1651;50.940;6.888;2023-05-10T08:23:46;14.50;;;9.20;;
3278;SDS011;1651;50.940;6.888;2023-05-10T08:26:12;14.70;;;8.63;;
3278;SDS011;1651;50.940;6.888;2023-05-10T08:28:38;12.70;;;7.97;;
3278;SDS011;1651;50.940;6.888;2023-05-10T08:31:04;10.50;;;7.47;;
3278;SDS011;1651;50.940;6.888;2023-05-10T08:33:30;14.23;;;7.93;;
3278;SDS011;1651;50.940;6.888;2023-05-10T08:35:56;8.80;;;7.27;;
3278;SDS011;1651;50.940;6.888;2023-05-10T08:38:22;13.43;;;9.13;;
3278;SDS011;1651;50.940;6.888;2023-05-10T08:40:49;9.80;;;5.80;;
3278;SDS011;1651;50.940;6.888;2023-05-10T08:43:20;8.50;;;6.23;;
3278;SDS011;1651;50.940;6.888;2023-05-10T08:45:46;8.60;;;6.77;;
3278;SDS011;1651;50.940;6.888;2023-05-10T08:48:12;10.53;;;7.67;;
3278;SDS011;1651;50.940;6.888;2023-05-10T08:50:40;9.60;;;7.30;;
3278;SDS011;1651;50.940;6.888;2023-05-10T08:53:11;10.33;;;6.60;;
3278;SDS011;1651;50.940;6.888;2023-05-10T08:55:38;11.03;;;6.73;;
3278;SDS011;1651;50.940;6.888;2023-05-10T08:58:05;12.67;;;7.63;;
3278;SDS011;1651;50.940;6.888;2023-05-10T09:00:31;10.63;;;7.30;;
3278;SDS011;1651;50.940;6.888;2023-05-10T09:02:58;11.27;;;7.57;;
3278;SDS011;1651;50.940;6.888;2023-05-10T09:05:25;11.33;;;6.13;;
3278;SDS011;1651;50.940;6.888;2023-05-10T09:07:51;10.97;;;6.37;;
3278;SDS011;1651;50.940;6.888;2023-05-10T09:10:18;8.23;;;6.43;;
3278;SDS011;1651;50.940;6.888;2023-05-10T09:12:44;9.17;;;6.67;;
3278;SDS011;1651;50.940;6.888;2023-05-10T09:15:12;9.17;;;6.10;;
3278;SDS011;1651;50.940;6.888;2023-05-10T09:17:40;8.00;;;6.60;;
3278;SDS011;1651;50.940;6.888;2023-05-10T09:20:06;9.10;;;7.00;;
3278;SDS011;1651;50.940;6.888;2023-05-10T09:22:33;9.73;;;6.60;;
3278;SDS011;1651;50.940;6.888;2023-05-10T09:25:09;11.40;;;6.63;;
3278;SDS011;1651;50.940;6.888;2023-05-10T09:27:39;8.60;;;6.40;;
3278;SDS011;1651;50.940;6.888;2023-05-10T09:30:06;7.03;;;5.67;;
3278;SDS011;1651;50.940;6.888;2023-05-10T09:32:36;10.53;;;7.10;;
3278;SDS011;1651;50.940;6.888;2023-05-10T09:35:16;11.70;;;7.40;;
3278;SDS011;1651;50.940;6.888;2023-05-10T09:37:43;10.97;;;7.60;;
3278;SDS011;1651;50.940;6.888;2023-05-10T09:40:11;11.60;;;7.97;;
3278;SDS011;1651;50.940;6.888;2023-05-10T09:42:38;11.17;;;7.90;;
3278;SDS011;1651;50.940;6.888;2023-05-10T09:45:04;12.50;;;8.20;;
3278;SDS011;1651;50.940;6.888;2023-05-10T09:47:34;11.47;;;7.33;;
3278;SDS011;1651;50.940;6.888;2023-05-10T09:50:01;14.93;;;8.60;;
3278;SDS011;1651;50.940;6.888;2023-05-10T09:52:28;12.00;;;8.00;;
3278;SDS011;1651;50.940;6.888;2023-05-10T09:54:58;12.57;;;7.90;;
3278;SDS011;1651;50.940;6.888;2023-05-10T09:57:25;15.60;;;9.03;;
3278;SDS011;1651;50.940;6.888;2023-05-10T09:59:51;11.27;;;7.80;;
3278;SDS011;1651;50.940;6.888;2023-05-10T10:02:19;13.03;;;7.47;;
3278;SDS011;1651;50.940;6.888;2023-05-10T10:04:45;11.87;;;8.23;;
3278;SDS011;1651;50.940;6.888;2023-05-10T10:07:15;12.93;;;7.73;;
3278;SDS011;1651;50.940;6.888;2023-05-10T10:09:47;9.67;;;6.80;;
3278;SDS011;1651;50.940;6.888;2023-05-10T10:12:13;10.43;;;6.53;;
3278;SDS011;1651;50.940;6.888;2023-05-10T10:14:40;7.60;;;5.87;;
3278;SDS011;1651;50.940;6.888;2023-05-10T10:17:06;9.03;;;5.77;;
3278;SDS011;1651;50.940;6.888;2023-05-10T10:19:33;9.17;;;6.40;;
3278;SDS011;1651;50.940;6.888;2023-05-10T10:22:00;9.10;;;6.00;;
3278;SDS011;1651;50.940;6.888;2023-05-10T10:24:26;7.87;;;6.00;;
3278;SDS011;1651;50.940;6.888;2023-05-10T10:26:52;8.30;;;5.47;;
3278;SDS011;1651;50.940;6.888;2023-05-10T10:29:26;6.67;;;5.30;;
3278;SDS011;1651;50.940;6.888;2023-05-10T10:34:56;7.53;;;5.57;;
3278;SDS011;1651;50.940;6.888;2023-05-10T10:37:22;7.70;;;5.63;;
3278;SDS011;1651;50.940;6.888;2023-05-10T10:39:49;9.10;;;5.90;;
3278;SDS011;1651;50.940;6.888;2023-05-10T10:42:31;7.90;;;5.33;;
3278;SDS011;1651;50.940;6.888;2023-05-10T10:45:14;7.97;;;5.57;;
3278;SDS011;1651;50.940;6.888;2023-05-10T10:47:41;7.30;;;5.83;;
3278;SDS011;1651;50.940;6.888;2023-05-10T10:50:08;7.17;;;5.60;;
3278;SDS011;1651;50.940;6.888;2023-05-10T10:55:14;7.20;;;6.20;;
3278;SDS011;1651;50.940;6.888;2023-05-10T10:57:51;8.20;;;6.50;;
3278;SDS011;1651;50.940;6.888;2023-05-10T11:03:05;9.07;;;5.97;;
3278;SDS011;1651;50.940;6.888;2023-05-10T11:05:41;9.43;;;6.80;;
3278;SDS011;1651;50.940;6.888;2023-05-10T11:08:09;7.60;;;5.40;;
3278;SDS011;1651;50.940;6.888;2023-05-10T11:10:35;6.30;;;4.90;;
3278;SDS011;1651;50.940;6.888;2023-05-10T11:13:02;5.30;;;4.20;;
3278;SDS011;1651;50.940;6.888;2023-05-10T11:15:31;5.90;;;4.60;;
3278;SDS011;1651;50.940;6.888;2023-05-10T11:17:57;5.10;;;4.00;;
3278;SDS011;1651;50.940;6.888;2023-05-10T11:20:33;4.77;;;3.40;;
3278;SDS011;1651;50.940;6.888;2023-05-10T11:23:11;4.10;;;3.60;;
3278;SDS011;1651;50.940;6.888;2023-05-10T11:25:49;3.93;;;3.37;;
3278;SDS011;1651;50.940;6.888;2023-05-10T11:28:18;4.30;;;2.93;;
3278;SDS011;1651;50.940;6.888;2023-05-10T11:30:44;4.20;;;3.43;;
3278;SDS011;1651;50.940;6.888;2023-05-10T11:33:14;4.73;;;2.83;;
3278;SDS011;1651;50.940;6.888;2023-05-10T11:35:41;3.13;;;2.83;;
3278;SDS011;1651;50.940;6.888;2023-05-10T11:38:11;2.90;;;2.57;;
3278;SDS011;1651;50.940;6.888;2023-05-10T11:40:37;3.50;;;2.70;;
3278;SDS011;1651;50.940;6.888;2023-05-10T11:43:04;3.60;;;2.73;;
3278;SDS011;1651;50.940;6.888;2023-05-10T11:45:34;3.60;;;2.67;;
3278;SDS011;1651;50.940;6.888;2023-05-10T11:48:00;2.60;;;2.40;;
3278;SDS011;1651;50.940;6.888;2023-05-10T11:50:27;4.67;;;3.03;;
3278;SDS011;1651;50.940;6.888;2023-05-10T11:52:53;3.13;;;2.57;;
3278;SDS011;1651;50.940;6.888;2023-05-10T11:55:20;2.93;;;2.60;;
3278;SDS011;1651;50.940;6.888;2023-05-10T11:57:46;2.70;;;2.50;;
3278;SDS011;1651;50.940;6.888;2023-05-10T12:00:12;3.27;;;2.57;;
3278;SDS011;1651;50.940;6.888;2023-05-10T12:02:39;3.80;;;2.43;;
3278;SDS011;1651;50.940;6.888;2023-05-10T12:05:05;2.73;;;2.53;;
3278;SDS011;1651;50.940;6.888;2023-05-10T12:12:40;2.80;;;2.30;;
3278;SDS011;1651;50.940;6.888;2023-05-10T12:17:41;3.00;;;2.40;;
3278;SDS011;1651;50.940;6.888;2023-05-10T12:20:16;2.13;;;1.90;;
3278;SDS011;1651;50.940;6.888;2023-05-10T12:22:49;3.00;;;2.63;;
3278;SDS011;1651;50.940;6.888;2023-05-10T12:25:16;8.30;;;2.50;;
3278;SDS011;1651;50.940;6.888;2023-05-10T12:27:52;2.50;;;2.10;;
3278;SDS011;1651;50.940;6.888;2023-05-10T12:32:47;2.40;;;2.20;;
3278;SDS011;1651;50.940;6.888;2023-05-10T12:35:13;2.20;;;2.00;;
3278;SDS011;1651;50.940;6.888;2023-05-10T12:37:41;2.60;;;2.40;;
3278;SDS011;1651;50.940;6.888;2023-05-10T12:40:07;2.33;;;2.07;;
3278;SDS011;1651;50.940;6.888;2023-05-10T12:42:34;4.03;;;2.10;;
3278;SDS011;1651;50.940;6.888;2023-05-10T12:45:01;2.00;;;1.80;;
3278;SDS011;1651;50.940;6.888;2023-05-10T12:47:28;2.40;;;2.00;;
3278;SDS011;1651;50.940;6.888;2023-05-10T12:49:54;1.77;;;1.60;;
3278;SDS011;1651;50.940;6.888;2023-05-10T12:52:20;1.73;;;1.63;;
3278;SDS011;1651;50.940;6.888;2023-05-10T12:54:46;2.80;;;2.60;;
3278;SDS011;1651;50.940;6.888;2023-05-10T12:57:12;2.70;;;2.40;;
3278;SDS011;1651;50.940;6.888;2023-05-10T12:59:38;2.10;;;2.00;;
3278;SDS011;1651;50.940;6.888;2023-05-10T13:02:05;2.27;;;2.07;;
3278;SDS011;1651;50.940;6.888;2023-05-10T13:04:31;1.87;;;1.77;;
3278;SDS011;1651;50.940;6.888;2023-05-10T13:06:57;2.30;;;2.10;;
3278;SDS011;1651;50.940;6.888;2023-05-10T13:09:27;2.47;;;2.27;;
3278;SDS011;1651;50.940;6.888;2023-05-10T13:11:54;2.20;;;1.80;;
3278;SDS011;1651;50.940;6.888;2023-05-10T13:14:20;2.00;;;1.80;;
3278;SDS011;1651;50.940;6.888;2023-05-10T13:16:47;1.70;;;1.60;;
3278;SDS011;1651;50.940;6.888;2023-05-10T13:19:16;2.07;;;1.97;;
3278;SDS011;1651;50.940;6.888;2023-05-10T13:21:42;1.60;;;1.50;;
3278;SDS011;1651;50.940;6.888;2023-05-10T13:24:09;2.50;;;1.27;;
3278;SDS011;1651;50.940;6.888;2023-05-10T13:26:35;1.30;;;1.17;;
3278;SDS011;1651;50.940;6.888;2023-05-10T13:29:02;2.90;;;1.43;;
3278;SDS011;1651;50.940;6.888;2023-05-10T13:31:28;1.70;;;1.60;;
3278;SDS011;1651;50.940;6.888;2023-05-10T13:33:55;2.30;;;1.70;;
3278;SDS011;1651;50.940;6.888;2023-05-10T13:36:21;2.37;;;2.17;;
3278;SDS011;1651;50.940;6.888;2023-05-10T13:38:47;2.80;;;1.80;;
3278;SDS011;1651;50.940;6.888;2023-05-10T13:41:14;2.43;;;1.53;;
3278;SDS011;1651;50.940;6.888;2023-05-10T13:43:40;2.23;;;1.50;;
3278;SDS011;1651;50.940;6.888;2023-05-10T13:46:05;2.10;;;1.30;;
3278;SDS011;1651;50.940;6.888;2023-05-10T13:48:31;2.37;;;1.37;;
3278;SDS011;1651;50.940;6.888;2023-05-10T13:50:57;1.80;;;1.30;;
3278;SDS011;1651;50.940;6.888;2023-05-10T13:53:23;1.90;;;1.60;;
3278;SDS011;1651;50.940;6.888;2023-05-10T13:55:49;2.37;;;1.10;;
3278;SDS011;1651;50.940;6.888;2023-05-10T13:58:16;1.27;;;1.10;;
3278;SDS011;1651;50.940;6.888;2023-05-10T14:00:42;1.10;;;1.00;;
3278;SDS011;1651;50.940;6.888;2023-05-10T14:03:08;2.00;;;1.10;;
3278;SDS011;1651;50.940;6.888;2023-05-10T14:05:35;2.27;;;1.00;;
3278;SDS011;1651;50.940;6.888;2023-05-10T14:08:10;1.40;;;0.90;;
3278;SDS011;1651;50.940;6.888;2023-05-10T14:10:38;1.23;;;1.13;;
3278;SDS011;1651;50.940;6.888;2023-05-10T14:13:04;1.27;;;1.00;;
3278;SDS011;1651;50.940;6.888;2023-05-10T14:15:31;2.10;;;1.13;;
3278;SDS011;1651;50.940;6.888;2023-05-10T14:17:57;1.50;;;1.40;;
3278;SDS011;1651;50.940;6.888;2023-05-10T14:20:23;1.47;;;1.37;;
3278;SDS011;1651;50.940;6.888;2023-05-10T14:22:50;4.53;;;2.00;;
3278;SDS011;1651;50.940;6.888;2023-05-10T14:25:16;3.10;;;1.37;;
3278;SDS011;1651;50.940;6.888;2023-05-10T14:27:46;1.53;;;1.43;;
3278;SDS011;1651;50.940;6.888;2023-05-10T14:30:12;1.27;;;1.17;;
3278;SDS011;1651;50.940;6.888;2023-05-10T14:32:38;3.23;;;1.60;;
3278;SDS011;1651;50.940;6.888;2023-05-10T14:35:05;1.60;;;1.50;;
3278;SDS011;1651;50.940;6.888;2023-05-10T14:37:31;1.63;;;1.30;;
3278;SDS011;1651;50.940;6.888;2023-05-10T14:40:00;1.47;;;1.20;;
3278;SDS011;1651;50.940;6.888;2023-05-10T14:42:26;1.60;;;1.10;;
3278;SDS011;1651;50.940;6.888;2023-05-10T14:44:53;1.33;;;1.20;;
3278;SDS011;1651;50.940;6.888;2023-05-10T14:47:22;2.73;;;1.30;;
3278;SDS011;1651;50.940;6.888;2023-05-10T14:49:55;2.33;;;1.30;;
3278;SDS011;1651;50.940;6.888;2023-05-10T14:52:31;2.00;;;1.73;;
3278;SDS011;1651;50.940;6.888;2023-05-10T14:54:57;1.60;;;1.50;;
3278;SDS011;1651;50.940;6.888;2023-05-10T14:57:31;2.27;;;1.87;;
3278;SDS011;1651;50.940;6.888;2023-05-10T15:00:01;3.43;;;1.60;;
3278;SDS011;1651;50.940;6.888;2023-05-10T15:02:27;3.00;;;1.50;;
3278;SDS011;1651;50.940;6.888;2023-05-10T15:04:53;4.67;;;1.73;;
3278;SDS011;1651;50.940;6.888;2023-05-10T15:07:19;2.13;;;1.50;;
3278;SDS011;1651;50.940;6.888;2023-05-10T15:09:45;1.90;;;1.70;;
3278;SDS011;1651;50.940;6.888;2023-05-10T15:12:11;1.50;;;1.23;;
3278;SDS011;1651;50.940;6.888;2023-05-10T15:14:37;1.83;;;1.37;;
3278;SDS011;1651;50.940;6.888;2023-05-10T15:17:05;2.10;;;1.83;;
3278;SDS011;1651;50.940;6.888;2023-05-10T15:19:31;2.37;;;1.90;;
3278;SDS011;1651;50.940;6.888;2023-05-10T15:21:58;2.60;;;1.80;;
3278;SDS011;1651;50.940;6.888;2023-05-10T15:24:24;2.00;;;1.73;;
3278;SDS011;1651;50.940;6.888;2023-05-10T15:26:50;2.03;;;1.83;;
3278;SDS011;1651;50.940;6.888;2023-05-10T15:29:16;2.43;;;1.60;;
3278;SDS011;1651;50.940;6.888;2023-05-10T15:31:47;3.90;;;2.73;;
3278;SDS011;1651;50.940;6.888;2023-05-10T15:34:16;3.07;;;1.87;;
3278;SDS011;1651;50.940;6.888;2023-05-10T15:36:43;2.37;;;2.17;;
3278;SDS011;1651;50.940;6.888;2023-05-10T15:39:09;2.47;;;1.90;;
3278;SDS011;1651;50.940;6.888;2023-05-10T15:41:35;3.63;;;2.03;;